createdAt,value
2018-06-04T10:19:13.800Z,44.20
2018-06-04T10:21:42.662Z,44.10
2018-06-04T10:24:10.784Z,44.00
2018-06-04T10:26:38.866Z,43.90
2018-06-04T10:29:06.976Z,43.50
2018-06-04T10:31:35.131Z,42.80
2018-06-04T10:34:03.256Z,42.10
2018-06-04T10:36:32.127Z,40.90
2018-06-04T10:39:00.245Z,40.80
2018-06-04T10:41:28.474Z,40.40
2018-06-04T10:43:56.653Z,39.80
2018-06-04T10:46:24.841Z,39.30
2018-06-04T10:48:53.738Z,38.10
2018-06-04T10:51:22.593Z,37.60
2018-06-04T10:53:50.702Z,37.50
2018-06-04T10:56:18.929Z,37.10
2018-06-04T10:58:47.070Z,36.60
2018-06-04T11:01:15.172Z,36.00
2018-06-04T11:03:43.266Z,35.40
2018-06-04T11:06:11.389Z,34.70
2018-06-04T11:08:39.527Z,34.20
2018-06-04T11:11:08.401Z,33.30
2018-06-04T11:13:36.491Z,33.20
2018-06-04T11:16:06.000Z,32.60
2018-06-04T11:18:34.874Z,32.10
2018-06-04T11:21:02.970Z,32.10
2018-06-04T11:23:31.864Z,31.20
2018-06-04T11:26:00.018Z,31.10
2018-06-04T11:28:28.101Z,30.70
2018-06-04T11:30:56.260Z,30.30
2018-06-04T11:33:25.152Z,29.70
2018-06-04T11:35:53.266Z,29.70
2018-06-04T11:38:21.362Z,29.90
2018-06-04T11:40:49.476Z,29.10
2018-06-04T11:43:17.570Z,28.80
2018-06-04T11:45:45.815Z,28.60
2018-06-04T11:48:13.995Z,28.40
2018-06-04T11:50:42.875Z,27.70
2018-06-04T11:53:11.111Z,27.60
2018-06-04T11:55:39.226Z,27.60
2018-06-04T11:58:07.309Z,27.20
2018-06-04T12:00:36.223Z,26.60
2018-06-04T12:03:04.313Z,26.50
2018-06-04T12:05:32.429Z,26.30
2018-06-04T12:08:00.522Z,26.10
2018-06-04T12:10:28.615Z,26.00
2018-06-04T12:12:56.749Z,25.80
2018-06-04T12:15:25.657Z,25.40
2018-06-04T12:17:54.595Z,25.30
2018-06-04T12:20:22.727Z,25.20
2018-06-04T12:22:50.837Z,25.10
2018-06-04T12:25:18.948Z,24.60
2018-06-04T12:27:47.062Z,23.90
2018-06-04T12:30:15.196Z,23.10
2018-06-04T12:32:43.333Z,22.30
2018-06-04T12:35:11.467Z,21.50
2018-06-04T12:37:39.634Z,20.80
2018-06-04T12:40:07.730Z,20.40
2018-06-04T12:42:35.841Z,20.20
2018-06-04T12:45:03.948Z,20.00
2018-06-04T12:47:32.950Z,19.70
2018-06-04T12:50:01.218Z,19.60
2018-06-04T12:52:29.448Z,19.70
2018-06-04T12:54:57.665Z,19.90
2018-06-04T12:57:26.552Z,20.40
2018-06-04T12:59:55.430Z,20.40
2018-06-04T13:02:23.531Z,20.40
2018-06-04T13:04:51.713Z,20.40
2018-06-04T13:07:19.826Z,20.60
2018-06-04T13:09:48.064Z,20.50
2018-06-04T13:12:16.274Z,20.50
2018-06-04T13:14:44.393Z,20.60
2018-06-04T13:17:12.520Z,20.60
2018-06-04T13:19:40.680Z,20.60
2018-06-04T13:22:08.807Z,20.60
2018-06-04T13:24:36.915Z,20.40
2018-06-04T13:27:05.019Z,20.30
2018-06-04T13:29:33.133Z,20.30
2018-06-04T13:32:01.242Z,20.30
2018-06-04T13:34:29.336Z,20.30
2018-06-04T13:36:57.460Z,20.30
2018-06-04T13:39:25.684Z,20.30
2018-06-04T13:41:53.746Z,20.00
2018-06-04T13:44:21.872Z,20.00
2018-06-04T13:46:49.975Z,20.00
2018-06-04T13:49:18.119Z,20.10
2018-06-04T13:51:46.221Z,20.00
2018-06-04T13:54:14.314Z,20.00
2018-06-04T13:56:42.445Z,20.00
2018-06-04T13:59:10.557Z,20.00
2018-06-04T14:01:38.661Z,20.50
2018-06-04T14:04:07.554Z,19.80
2018-06-04T14:06:35.684Z,19.80
2018-06-04T14:09:03.772Z,19.70
2018-06-04T14:11:31.882Z,19.80
2018-06-04T14:13:59.971Z,19.70
2018-06-04T14:16:28.083Z,19.60
2018-06-04T14:18:56.196Z,19.50
2018-06-04T14:21:24.655Z,19.50
2018-06-04T14:23:52.747Z,19.50
2018-06-04T14:26:21.604Z,19.60
2018-06-04T14:28:49.705Z,19.50
2018-06-04T14:31:18.600Z,19.50
2018-06-04T14:33:47.531Z,19.50
2018-06-04T14:36:15.600Z,20.00
2018-06-04T14:38:43.713Z,19.40
2018-06-04T14:41:11.825Z,19.40
2018-06-04T14:43:39.936Z,19.40
2018-06-04T14:46:08.057Z,19.40
2018-06-04T14:48:36.178Z,19.50
2018-06-04T14:51:04.331Z,19.70
2018-06-04T14:53:32.537Z,19.70
2018-06-04T14:56:00.665Z,19.60
2018-06-04T14:58:28.784Z,19.40
2018-06-04T15:00:56.918Z,19.40
2018-06-04T15:03:25.032Z,19.30
2018-06-04T15:05:53.139Z,19.10
2018-06-04T15:08:21.251Z,19.00
2018-06-04T15:10:49.360Z,19.00
2018-06-04T15:13:18.233Z,18.10
2018-06-04T15:15:46.401Z,18.00
2018-06-04T15:18:14.507Z,17.70
2018-06-04T15:20:42.627Z,17.30
2018-06-04T15:23:10.953Z,16.80
2018-06-04T15:25:39.201Z,16.40
2018-06-04T15:28:08.092Z,16.00
2018-06-04T15:30:36.745Z,15.90
2018-06-04T15:33:04.850Z,15.90
2018-06-04T15:35:32.948Z,15.90
2018-06-04T15:38:01.994Z,15.80
2018-06-04T15:40:30.264Z,15.80
2018-06-04T15:42:58.413Z,15.80
2018-06-04T15:45:26.518Z,15.50
2018-06-04T15:47:54.658Z,15.20
2018-06-04T15:50:22.804Z,15.20
2018-06-04T15:52:50.873Z,15.10
2018-06-04T15:55:19.766Z,15.20
2018-06-04T15:57:47.969Z,15.20
2018-06-04T16:00:16.198Z,15.20
2018-06-04T16:02:44.406Z,15.10
2018-06-04T16:05:12.492Z,15.00
2018-06-04T16:07:40.622Z,15.00
2018-06-04T16:10:08.740Z,15.00
2018-06-04T16:12:36.866Z,15.00
2018-06-04T16:15:04.988Z,15.00
2018-06-04T16:17:33.112Z,15.00
2018-06-04T16:20:01.250Z,14.90
2018-06-04T16:22:29.449Z,14.70
2018-06-04T16:24:57.584Z,14.60
2018-06-04T16:27:25.692Z,14.50
2018-06-04T16:29:53.829Z,14.40
2018-06-04T16:32:21.975Z,14.30
2018-06-04T16:34:50.091Z,14.40
2018-06-04T16:37:18.266Z,14.50
2018-06-04T16:39:47.181Z,14.70
2018-06-04T16:42:15.472Z,15.20
2018-06-04T16:44:43.630Z,14.60
2018-06-04T16:47:11.933Z,14.70
2018-06-04T16:49:40.067Z,14.90
2018-06-04T16:52:08.171Z,15.00
2018-06-04T16:54:36.297Z,15.00
2018-06-04T16:57:05.232Z,15.20
2018-06-04T16:59:33.406Z,15.30
2018-06-04T17:02:01.508Z,15.40
2018-06-04T17:04:29.663Z,15.60
2018-06-04T17:06:59.125Z,15.70
2018-06-04T17:09:27.306Z,15.70
2018-06-04T17:11:55.423Z,15.80
2018-06-04T17:14:23.553Z,15.90
2018-06-04T17:16:51.836Z,16.00
2018-06-04T17:19:20.077Z,16.10
2018-06-04T17:21:48.248Z,16.30
2018-06-04T17:24:16.380Z,16.70
2018-06-04T17:26:44.957Z,17.00
2018-06-04T17:29:13.446Z,17.30
2018-06-04T17:31:41.920Z,17.60
2018-06-04T17:34:10.079Z,17.80
2018-06-04T17:36:38.340Z,18.10
2018-06-04T17:39:06.468Z,18.50
2018-06-04T17:41:34.582Z,18.90
2018-06-04T17:44:02.941Z,19.30
2018-06-04T17:46:31.079Z,19.70
2018-06-04T17:48:59.420Z,20.20
2018-06-04T17:51:27.700Z,20.50
2018-06-04T17:53:55.815Z,20.80
2018-06-04T17:56:24.753Z,21.40
2018-06-04T17:58:52.860Z,21.40
2018-06-04T18:01:20.978Z,21.70
2018-06-04T18:03:49.122Z,22.00
2018-06-04T18:06:18.032Z,22.70
2018-06-04T18:08:46.159Z,22.70
2018-06-04T18:11:14.256Z,23.00
2018-06-04T18:13:42.529Z,23.30
2018-06-04T18:16:10.746Z,23.80
2018-06-04T18:18:39.589Z,24.30
2018-06-04T18:21:08.513Z,25.20
2018-06-04T18:23:37.454Z,25.30
2018-06-04T18:26:05.648Z,25.70
2018-06-04T18:28:33.850Z,26.20
2018-06-04T18:31:01.982Z,26.50
2018-06-04T18:33:30.142Z,26.90
2018-06-04T18:35:58.867Z,27.30
2018-06-04T18:38:27.170Z,27.80
2018-06-04T18:40:55.314Z,28.20
2018-06-04T18:43:23.406Z,28.50
2018-06-04T18:45:51.522Z,29.10
2018-06-04T18:48:19.626Z,29.60
2018-06-04T18:50:47.766Z,29.90
2018-06-04T18:53:15.919Z,30.00
2018-06-04T18:55:44.075Z,30.30
2018-06-04T18:58:12.187Z,30.60
2018-06-04T19:00:40.288Z,30.90
2018-06-04T19:03:09.185Z,31.50
2018-06-04T19:05:37.305Z,31.50
2018-06-04T19:08:05.433Z,31.90
2018-06-04T19:10:33.545Z,32.30
2018-06-04T19:13:01.648Z,32.70
2018-06-04T19:15:29.791Z,32.90
2018-06-04T19:17:57.966Z,33.20
2018-06-04T19:20:26.191Z,33.50
2018-06-04T19:22:54.329Z,33.80
2018-06-04T19:25:22.476Z,34.10
2018-06-04T19:27:50.576Z,34.60
2018-06-04T19:30:18.694Z,35.00
2018-06-04T19:32:46.813Z,35.40
2018-06-04T19:35:14.913Z,35.80
2018-06-04T19:37:43.790Z,36.90
2018-06-04T19:40:11.927Z,37.00
2018-06-04T19:42:40.041Z,37.50
2018-06-04T19:45:08.126Z,38.10
2018-06-04T19:47:36.261Z,38.60
2018-06-04T19:50:04.357Z,39.00
2018-06-04T19:52:32.469Z,39.30
2018-06-04T19:55:00.602Z,39.60
2018-06-04T19:57:28.784Z,40.00
2018-06-04T19:59:56.892Z,40.50
2018-06-04T20:02:25.005Z,40.90
2018-06-04T20:04:53.978Z,41.30
2018-06-04T20:07:22.090Z,41.50
2018-06-04T20:09:50.180Z,41.70
2018-06-04T20:12:19.072Z,42.20
2018-06-04T20:14:47.928Z,42.50
2018-06-04T20:17:16.030Z,42.50
2018-06-04T20:19:45.057Z,43.80
2018-06-04T20:22:13.153Z,43.10
2018-06-04T20:24:41.282Z,43.40
2018-06-04T20:27:10.169Z,43.90
2018-06-04T20:29:38.310Z,44.00
2018-06-04T20:32:06.432Z,44.30
2018-06-04T20:34:34.603Z,44.50
2018-06-04T20:37:02.697Z,44.70
2018-06-04T20:39:30.810Z,45.00
2018-06-04T20:41:58.915Z,45.10
2018-06-04T20:44:27.013Z,45.30
2018-06-04T20:46:55.131Z,45.50
2018-06-04T20:49:23.219Z,45.70
2018-06-04T20:51:52.107Z,46.10
2018-06-04T20:54:20.992Z,46.30
2018-06-04T20:56:49.880Z,46.50
2018-06-04T20:59:18.764Z,46.70
2018-06-04T21:01:46.855Z,46.80
2018-06-04T21:04:15.737Z,47.20
2018-06-04T21:06:44.641Z,47.50
2018-06-04T21:09:14.261Z,47.70
2018-06-04T21:11:42.374Z,47.70
2018-06-04T21:14:10.483Z,47.90
2018-06-04T21:16:39.403Z,48.20
2018-06-04T21:19:07.533Z,48.20
2018-06-04T21:21:35.655Z,48.30
2018-06-04T21:24:03.765Z,48.40
2018-06-04T21:26:31.882Z,48.60
2018-06-04T21:28:59.975Z,48.80
2018-06-04T21:31:28.159Z,49.00
2018-06-04T21:33:56.388Z,49.20
2018-06-04T21:36:24.620Z,49.40
2018-06-04T21:38:52.869Z,49.50
2018-06-04T21:41:20.987Z,49.70
2018-06-04T21:43:49.088Z,49.80
2018-06-04T21:46:17.706Z,49.90
2018-06-04T21:48:46.401Z,50.10
2018-06-04T21:51:14.491Z,50.10
2018-06-04T21:53:42.624Z,50.20
2018-06-04T21:56:10.718Z,50.30
2018-06-04T21:58:38.841Z,50.40
2018-06-04T22:01:07.760Z,50.70
2018-06-04T22:03:35.876Z,50.70
2018-06-04T22:06:03.993Z,50.80
2018-06-04T22:08:32.098Z,50.90
2018-06-04T22:11:00.219Z,51.10
2018-06-04T22:13:29.105Z,51.50
2018-06-04T22:15:57.993Z,51.60
2018-06-04T22:18:26.929Z,51.80
2018-06-04T22:20:55.049Z,51.70
2018-06-04T22:23:23.179Z,51.80
2018-06-04T22:25:51.302Z,52.00
2018-06-04T22:28:19.420Z,52.00
2018-06-04T22:30:47.539Z,52.20
2018-06-04T22:33:15.662Z,52.40
2018-06-04T22:35:43.762Z,52.50
2018-06-04T22:38:11.904Z,52.70
2018-06-04T22:40:40.034Z,52.80
2018-06-04T22:43:08.312Z,52.80
2018-06-04T22:45:36.416Z,52.90
2018-06-04T22:48:04.586Z,52.90
2018-06-04T22:50:32.724Z,53.00
2018-06-04T22:53:00.818Z,53.10
2018-06-04T22:55:28.934Z,53.20
2018-06-04T22:57:57.053Z,53.20
2018-06-04T23:00:25.954Z,53.40
2018-06-04T23:02:55.431Z,53.40
2018-06-04T23:05:23.541Z,53.50
2018-06-04T23:07:51.737Z,53.50
2018-06-04T23:10:19.873Z,53.70
2018-06-04T23:12:48.762Z,53.90
2018-06-04T23:15:17.640Z,53.80
2018-06-04T23:17:45.767Z,53.90
2018-06-04T23:20:13.901Z,53.90
2018-06-04T23:22:42.015Z,54.00
2018-06-04T23:25:10.140Z,54.00
2018-06-04T23:27:38.989Z,54.20
2018-06-04T23:30:07.106Z,54.10
2018-06-04T23:32:35.986Z,54.40
2018-06-04T23:35:04.105Z,54.40
2018-06-04T23:37:32.229Z,54.40
2018-06-04T23:40:00.326Z,54.60
2018-06-04T23:42:28.446Z,54.70
2018-06-04T23:44:56.544Z,54.90
2018-06-04T23:47:24.732Z,55.00
2018-06-04T23:49:52.931Z,55.20
2018-06-04T23:52:21.180Z,55.30
2018-06-04T23:54:50.147Z,55.40
2018-06-04T23:57:18.244Z,55.40
2018-06-04T23:59:46.359Z,55.50
